createdAt,value
2018-08-30T00:02:10.639Z,3.03
2018-08-30T00:04:38.323Z,3.23
2018-08-30T00:07:06.279Z,3.33
2018-08-30T00:09:34.119Z,3.40
2018-08-30T00:12:01.916Z,3.30
2018-08-30T00:14:29.741Z,3.20
2018-08-30T00:16:57.452Z,3.13
2018-08-30T00:19:25.195Z,3.10
2018-08-30T00:21:54.336Z,3.33
2018-08-30T00:24:22.204Z,2.93
2018-08-30T00:26:50.009Z,2.70
2018-08-30T00:29:17.745Z,3.00
2018-08-30T00:31:45.409Z,3.00
2018-08-30T00:34:13.008Z,2.93
2018-08-30T00:36:40.693Z,2.77
2018-08-30T00:39:09.003Z,3.67
2018-08-30T00:41:36.879Z,3.40
2018-08-30T00:44:04.752Z,3.63
2018-08-30T00:46:32.316Z,3.90
2018-08-30T00:48:59.980Z,3.57
2018-08-30T00:51:27.575Z,3.37
2018-08-30T00:53:55.187Z,4.00
2018-08-30T00:56:22.836Z,3.47
2018-08-30T00:58:50.499Z,3.90
2018-08-30T01:01:18.156Z,4.07
2018-08-30T01:03:45.847Z,4.00
2018-08-30T01:06:14.192Z,4.10
2018-08-30T01:08:41.911Z,4.83
2018-08-30T01:11:09.649Z,4.53
2018-08-30T01:13:37.403Z,4.50
2018-08-30T01:16:05.065Z,4.90
2018-08-30T01:18:33.408Z,4.80
2018-08-30T01:21:01.191Z,5.13
2018-08-30T01:23:28.899Z,4.60
2018-08-30T01:25:56.551Z,5.30
2018-08-30T01:28:24.212Z,5.20
2018-08-30T01:30:51.894Z,5.20
2018-08-30T01:33:19.758Z,5.53
2018-08-30T01:35:47.387Z,5.47
2018-08-30T01:38:15.839Z,5.37
2018-08-30T01:40:43.496Z,5.00
2018-08-30T01:43:11.140Z,5.70
2018-08-30T01:45:39.040Z,6.03
2018-08-30T01:48:06.751Z,6.40
2018-08-30T01:50:34.459Z,6.17
2018-08-30T01:53:02.027Z,5.70
2018-08-30T01:55:29.632Z,5.63
2018-08-30T01:57:57.391Z,5.50
2018-08-30T02:00:25.164Z,5.73
2018-08-30T02:02:52.745Z,5.87
2018-08-30T02:05:20.284Z,6.40
2018-08-30T02:07:48.560Z,7.07
2018-08-30T02:10:16.307Z,6.27
2018-08-30T02:12:43.822Z,6.27
2018-08-30T02:15:11.462Z,6.63
2018-08-30T02:17:39.943Z,6.30
2018-08-30T02:20:07.779Z,6.30
2018-08-30T02:22:35.383Z,6.30
2018-08-30T02:25:03.204Z,6.70
2018-08-30T02:27:31.028Z,6.40
2018-08-30T02:29:58.800Z,6.20
2018-08-30T02:32:26.692Z,7.23
2018-08-30T02:34:54.351Z,6.90
2018-08-30T02:37:21.981Z,6.30
2018-08-30T02:39:49.512Z,6.47
2018-08-30T02:42:17.908Z,5.90
2018-08-30T02:44:46.246Z,6.03
2018-08-30T02:47:14.240Z,7.33
2018-08-30T02:49:41.922Z,6.10
2018-08-30T02:52:09.570Z,6.13
2018-08-30T02:54:37.587Z,6.67
2018-08-30T02:57:05.663Z,5.70
2018-08-30T02:59:33.392Z,7.17
2018-08-30T03:02:01.551Z,6.20
2018-08-30T03:04:29.123Z,6.20
2018-08-30T03:06:56.976Z,5.90
2018-08-30T03:09:24.664Z,5.37
2018-08-30T03:11:52.264Z,6.20
2018-08-30T03:14:19.944Z,5.50
2018-08-30T03:16:48.469Z,5.77
2018-08-30T03:19:16.098Z,6.30
2018-08-30T03:21:43.651Z,6.43
2018-08-30T03:24:11.504Z,6.10
2018-08-30T03:26:39.120Z,5.60
2018-08-30T03:29:06.883Z,5.37
2018-08-30T03:31:34.683Z,5.33
2018-08-30T03:34:02.320Z,5.10
2018-08-30T03:36:30.353Z,4.73
2018-08-30T03:38:58.039Z,4.20
2018-08-30T03:41:25.601Z,3.73
2018-08-30T03:43:53.447Z,4.37
2018-08-30T03:46:21.066Z,4.33
2018-08-30T03:48:48.861Z,4.70
2018-08-30T03:51:16.447Z,4.13
2018-08-30T03:53:44.191Z,4.10
2018-08-30T03:56:12.013Z,4.30
2018-08-30T03:58:39.779Z,4.80
2018-08-30T04:01:07.488Z,4.80
2018-08-30T04:03:35.392Z,5.63
2018-08-30T04:06:02.993Z,6.40
2018-08-30T04:08:30.572Z,6.37
2018-08-30T04:10:58.162Z,6.20
2018-08-30T04:13:25.836Z,5.30
2018-08-30T04:15:53.409Z,5.40
2018-08-30T04:18:21.034Z,6.23
2018-08-30T04:20:48.704Z,6.37
2018-08-30T04:23:16.287Z,6.37
2018-08-30T04:25:44.268Z,6.77
2018-08-30T04:28:11.859Z,7.50
2018-08-30T04:30:39.417Z,6.10
2018-08-30T04:33:07.240Z,6.77
2018-08-30T04:35:34.840Z,6.60
2018-08-30T04:38:02.982Z,7.00
2018-08-30T04:40:30.655Z,7.17
2018-08-30T04:42:58.221Z,7.37
2018-08-30T04:45:25.831Z,7.53
2018-08-30T04:47:53.420Z,6.93
2018-08-30T04:50:21.086Z,7.30
2018-08-30T04:52:48.863Z,6.70
2018-08-30T04:55:16.557Z,7.47
2018-08-30T04:57:44.432Z,7.00
2018-08-30T05:00:12.081Z,6.90
2018-08-30T05:02:39.955Z,7.00
2018-08-30T05:05:08.100Z,7.03
2018-08-30T05:07:35.816Z,6.60
2018-08-30T05:10:03.608Z,6.13
2018-08-30T05:12:31.294Z,6.20
2018-08-30T05:14:58.876Z,6.27
2018-08-30T05:17:26.679Z,7.40
2018-08-30T05:19:54.443Z,8.03
2018-08-30T05:22:22.465Z,8.30
2018-08-30T05:24:50.027Z,9.23
2018-08-30T05:27:17.660Z,9.70
2018-08-30T05:29:45.313Z,11.40
2018-08-30T05:32:13.161Z,11.33
2018-08-30T05:34:40.966Z,11.57
2018-08-30T05:37:09.235Z,12.53
2018-08-30T05:39:36.903Z,10.73
2018-08-30T05:42:04.427Z,10.73
2018-08-30T05:44:31.997Z,11.30
2018-08-30T05:46:59.515Z,11.57
2018-08-30T05:49:27.302Z,11.23
2018-08-30T05:51:54.912Z,10.33
2018-08-30T05:54:23.836Z,10.00
2018-08-30T05:56:51.598Z,10.53
2018-08-30T05:59:19.364Z,10.50
2018-08-30T06:01:47.112Z,11.10
2018-08-30T06:04:14.820Z,9.47
2018-08-30T06:06:42.436Z,10.47
2018-08-30T06:09:10.027Z,9.33
2018-08-30T06:11:37.667Z,8.67
2018-08-30T06:14:05.480Z,8.60
2018-08-30T06:16:33.872Z,8.97
2018-08-30T06:19:02.608Z,8.40
2018-08-30T06:21:30.268Z,8.40
2018-08-30T06:23:57.905Z,7.07
2018-08-30T06:26:25.638Z,6.87
2018-08-30T06:28:53.184Z,7.40
2018-08-30T06:31:21.122Z,7.97
2018-08-30T06:33:48.692Z,7.70
2018-08-30T06:36:17.054Z,7.50
2018-08-30T06:38:44.814Z,7.43
2018-08-30T06:41:12.341Z,6.80
2018-08-30T06:43:40.267Z,7.00
2018-08-30T06:46:09.059Z,7.27
2018-08-30T06:48:36.723Z,7.17
2018-08-30T06:51:04.896Z,6.90
2018-08-30T06:53:32.520Z,7.77
2018-08-30T06:56:00.204Z,7.33
2018-08-30T06:58:28.004Z,6.80
2018-08-30T07:00:55.592Z,7.60
2018-08-30T07:03:23.219Z,8.00
2018-08-30T07:05:50.863Z,7.90
2018-08-30T07:08:19.003Z,8.57
2018-08-30T07:10:46.612Z,8.80
2018-08-30T07:13:14.380Z,8.47
2018-08-30T07:15:42.215Z,8.03
2018-08-30T07:18:09.773Z,9.13
2018-08-30T07:20:37.328Z,8.03
2018-08-30T07:23:04.940Z,7.73
2018-08-30T07:25:32.655Z,6.33
2018-08-30T07:28:00.323Z,6.20
2018-08-30T07:30:28.176Z,6.13
2018-08-30T07:32:55.747Z,6.97
2018-08-30T07:35:23.387Z,7.23
2018-08-30T07:37:50.900Z,6.40
2018-08-30T07:40:18.835Z,7.13
2018-08-30T07:42:46.356Z,6.97
2018-08-30T07:45:13.947Z,8.00
2018-08-30T07:47:41.568Z,7.80
2018-08-30T07:50:09.388Z,8.73
2018-08-30T07:52:37.679Z,10.00
2018-08-30T07:55:05.920Z,8.50
2018-08-30T07:57:33.642Z,10.00
2018-08-30T08:00:02.203Z,9.37
2018-08-30T08:02:29.710Z,10.93
2018-08-30T08:04:57.383Z,11.47
2018-08-30T08:07:25.006Z,13.07
2018-08-30T08:09:52.734Z,12.30
2018-08-30T08:12:20.399Z,10.80
2018-08-30T08:14:47.907Z,11.93
2018-08-30T08:17:16.352Z,12.93
2018-08-30T08:19:43.928Z,11.30
2018-08-30T08:22:11.779Z,12.63
2018-08-30T08:24:39.444Z,13.10
2018-08-30T08:27:07.220Z,12.87
2018-08-30T08:29:34.860Z,12.87
2018-08-30T08:32:02.571Z,13.80
2018-08-30T08:34:30.239Z,12.53
2018-08-30T08:36:57.839Z,11.20
2018-08-30T08:39:25.552Z,12.23
2018-08-30T08:41:53.203Z,10.80
2018-08-30T08:44:20.893Z,11.10
2018-08-30T08:46:48.716Z,10.87
2018-08-30T08:49:16.315Z,10.70
2018-08-30T08:51:43.948Z,10.90
2018-08-30T08:54:11.584Z,10.97
2018-08-30T08:56:39.188Z,10.40
2018-08-30T08:59:07.645Z,10.90
2018-08-30T09:01:35.304Z,9.10
2018-08-30T09:04:03.075Z,10.23
2018-08-30T09:06:30.917Z,9.80
2018-08-30T09:08:58.455Z,9.60
2018-08-30T09:11:26.077Z,9.00
2018-08-30T09:13:53.856Z,8.77
2018-08-30T09:16:21.592Z,8.53
2018-08-30T09:18:50.088Z,10.33
2018-08-30T09:21:17.714Z,12.63
2018-08-30T09:23:45.360Z,12.10
2018-08-30T09:26:13.040Z,7.00
2018-08-30T09:28:41.447Z,7.13
2018-08-30T09:31:09.171Z,7.70
2018-08-30T09:33:36.940Z,8.60
2018-08-30T09:36:04.671Z,9.67
2018-08-30T09:38:32.480Z,8.53
2018-08-30T09:41:00.160Z,7.53
2018-08-30T09:43:29.753Z,8.60
2018-08-30T09:45:57.483Z,8.10
2018-08-30T09:48:25.161Z,6.60
2018-08-30T09:50:52.707Z,7.60
2018-08-30T09:53:20.387Z,7.30
2018-08-30T09:55:48.467Z,7.50
2018-08-30T09:58:16.854Z,7.30
2018-08-30T10:00:50.080Z,7.03
2018-08-30T10:03:17.663Z,7.27
2018-08-30T10:05:45.365Z,7.40
2018-08-30T10:08:13.031Z,6.70
2018-08-30T10:10:41.183Z,6.80
2018-08-30T10:13:08.728Z,6.97
2018-08-30T10:15:36.515Z,6.30
2018-08-30T10:18:04.124Z,5.77
2018-08-30T10:20:31.969Z,6.70
2018-08-30T10:22:59.664Z,6.80
2018-08-30T10:25:27.340Z,6.17
2018-08-30T10:27:55.753Z,5.83
2018-08-30T10:30:23.372Z,5.10
2018-08-30T10:32:51.242Z,6.07
2018-08-30T10:35:18.879Z,5.53
2018-08-30T10:37:46.419Z,5.43
2018-08-30T10:40:14.048Z,5.80
2018-08-30T10:42:41.674Z,5.87
2018-08-30T10:45:09.260Z,5.60
2018-08-30T10:47:36.828Z,6.40
2018-08-30T10:50:05.090Z,6.47
2018-08-30T10:52:32.863Z,5.40
2018-08-30T10:55:00.560Z,6.00
2018-08-30T10:57:28.234Z,6.50
2018-08-30T10:59:55.797Z,6.80
2018-08-30T11:02:23.884Z,6.13
2018-08-30T11:04:52.188Z,6.47
2018-08-30T11:07:20.029Z,7.10
2018-08-30T11:09:48.348Z,6.20
2018-08-30T11:12:16.001Z,6.20
2018-08-30T11:14:43.568Z,6.57
2018-08-30T11:17:11.294Z,6.40
2018-08-30T11:19:38.847Z,7.43
2018-08-30T11:22:07.410Z,7.60
2018-08-30T11:24:35.026Z,6.20
2018-08-30T11:27:02.843Z,6.90
2018-08-30T11:29:30.629Z,5.93
2018-08-30T11:31:58.885Z,6.90
2018-08-30T11:34:26.632Z,6.30
2018-08-30T11:36:54.467Z,6.10
2018-08-30T11:39:22.721Z,7.00
2018-08-30T11:41:50.514Z,7.27
2018-08-30T11:44:17.985Z,6.50
2018-08-30T11:46:45.540Z,6.87
2018-08-30T11:49:13.198Z,6.77
2018-08-30T11:51:41.661Z,7.07
2018-08-30T11:54:09.300Z,6.67
2018-08-30T11:56:36.867Z,7.20
2018-08-30T11:59:04.608Z,7.10
2018-08-30T12:01:32.204Z,7.80
2018-08-30T12:03:59.975Z,7.30
2018-08-30T12:06:27.785Z,7.73
2018-08-30T12:08:56.705Z,7.83
2018-08-30T12:11:24.481Z,6.83
2018-08-30T12:13:52.652Z,6.97
2018-08-30T12:16:20.680Z,7.93
2018-08-30T12:18:48.252Z,8.27
2018-08-30T12:21:15.932Z,8.23
2018-08-30T12:23:43.788Z,8.40
2018-08-30T12:26:11.575Z,8.17
2018-08-30T12:28:39.444Z,8.60
2018-08-30T12:31:07.194Z,8.50
2018-08-30T12:33:34.789Z,7.60
2018-08-30T12:36:02.824Z,8.47
2018-08-30T12:38:30.453Z,7.60
2018-08-30T12:40:58.368Z,8.27
2018-08-30T12:43:26.112Z,9.17
2018-08-30T12:45:53.923Z,8.80
2018-08-30T12:48:21.465Z,8.30
2018-08-30T12:50:49.127Z,7.47
2018-08-30T12:53:16.927Z,7.80
2018-08-30T12:55:44.566Z,8.00
2018-08-30T12:58:12.271Z,8.67
2018-08-30T13:00:39.840Z,9.33
2018-08-30T13:03:07.654Z,7.17
2018-08-30T13:05:35.627Z,8.23
2018-08-30T13:08:03.081Z,7.90
2018-08-30T13:10:30.673Z,9.23
2018-08-30T13:12:58.257Z,8.40
2018-08-30T13:15:26.225Z,8.10
2018-08-30T13:17:53.640Z,9.00
2018-08-30T13:20:21.361Z,8.10
2018-08-30T13:22:49.084Z,8.60
2018-08-30T13:25:17.686Z,8.03
2018-08-30T13:27:45.226Z,7.83
2018-08-30T13:30:12.936Z,6.77
2018-08-30T13:32:40.624Z,6.83
2018-08-30T13:35:08.462Z,7.73
2018-08-30T13:37:35.914Z,6.67
2018-08-30T13:40:04.094Z,7.13
2018-08-30T13:42:31.833Z,7.50
2018-08-30T13:44:59.313Z,7.83
2018-08-30T13:47:27.206Z,7.07
2018-08-30T13:49:54.569Z,8.00
2018-08-30T13:52:22.277Z,6.20
2018-08-30T13:54:50.089Z,7.50
2018-08-30T13:57:17.818Z,7.30
2018-08-30T13:59:45.526Z,8.00
2018-08-30T14:02:13.468Z,7.77
2018-08-30T14:04:41.058Z,8.30
2018-08-30T14:07:09.306Z,7.37
2018-08-30T14:09:36.814Z,7.87
2018-08-30T14:12:04.628Z,7.40
2018-08-30T14:14:32.874Z,7.33
2018-08-30T14:17:00.309Z,8.67
2018-08-30T14:19:28.024Z,8.90
2018-08-30T14:21:56.542Z,8.40
2018-08-30T14:24:25.138Z,8.40
2018-08-30T14:26:52.804Z,7.40
2018-08-30T14:29:20.327Z,8.60
2018-08-30T14:31:48.263Z,8.10
2018-08-30T14:34:15.858Z,8.37
2018-08-30T14:36:43.575Z,7.30
2018-08-30T14:39:11.834Z,8.97
2018-08-30T14:41:40.110Z,8.60
2018-08-30T14:44:07.981Z,9.10
2018-08-30T14:46:35.720Z,8.97
2018-08-30T14:49:03.812Z,8.63
2018-08-30T14:51:32.104Z,8.90
2018-08-30T14:53:59.940Z,9.03
2018-08-30T14:56:27.378Z,8.60
2018-08-30T14:58:54.952Z,8.50
2018-08-30T15:01:22.815Z,9.07
2018-08-30T15:03:50.511Z,9.30
2018-08-30T15:06:18.199Z,8.50
2018-08-30T15:08:45.858Z,9.10
2018-08-30T15:11:13.528Z,9.80
2018-08-30T15:13:41.315Z,8.17
2018-08-30T15:16:09.002Z,8.60
2018-08-30T15:18:36.644Z,9.90
2018-08-30T15:21:04.266Z,8.90
2018-08-30T15:23:32.176Z,9.30
2018-08-30T15:25:59.952Z,9.07
2018-08-30T15:28:27.768Z,8.87
2018-08-30T15:30:55.639Z,9.03
2018-08-30T15:33:23.371Z,9.03
2018-08-30T15:35:51.236Z,9.23
2018-08-30T15:38:18.884Z,8.60
2018-08-30T15:40:46.529Z,8.67
2018-08-30T15:43:14.265Z,9.00
2018-08-30T15:45:41.817Z,8.37
2018-08-30T15:48:09.449Z,8.50
2018-08-30T15:50:37.225Z,8.63
2018-08-30T15:53:05.670Z,7.50
2018-08-30T15:55:33.296Z,7.80
2018-08-30T15:58:00.871Z,8.10
2018-08-30T16:00:28.629Z,8.60
2018-08-30T16:02:56.530Z,8.30
2018-08-30T16:05:24.488Z,9.10
2018-08-30T16:07:52.815Z,8.63
2018-08-30T16:10:20.431Z,8.00
2018-08-30T16:12:48.644Z,8.30
2018-08-30T16:15:16.465Z,8.50
2018-08-30T16:17:44.037Z,8.33
2018-08-30T16:20:11.828Z,7.10
2018-08-30T16:23:49.435Z,8.07
2018-08-30T16:26:17.222Z,7.53
2018-08-30T16:28:44.824Z,8.40
2018-08-30T16:31:12.793Z,8.57
2018-08-30T16:33:40.289Z,8.77
2018-08-30T16:36:08.329Z,8.70
2018-08-30T16:38:36.330Z,7.87
2018-08-30T16:41:04.762Z,7.77
2018-08-30T16:43:32.463Z,8.43
2018-08-30T16:46:00.119Z,7.83
2018-08-30T16:48:27.736Z,8.47
2018-08-30T16:50:55.425Z,8.97
2018-08-30T16:53:23.207Z,10.20
2018-08-30T16:55:50.949Z,11.60
2018-08-30T16:58:18.710Z,11.37
2018-08-30T17:00:46.226Z,9.20
2018-08-30T17:03:13.830Z,10.10
2018-08-30T17:05:41.586Z,9.83
2018-08-30T17:08:09.524Z,9.27
2018-08-30T17:10:37.276Z,9.10
2018-08-30T17:13:05.264Z,8.70
2018-08-30T17:15:32.931Z,10.07
2018-08-30T17:18:00.713Z,11.40
2018-08-30T17:20:39.261Z,11.20
2018-08-30T17:23:06.892Z,10.77
2018-08-30T17:25:34.512Z,11.27
2018-08-30T17:28:02.154Z,11.70
2018-08-30T17:30:29.745Z,10.77
2018-08-30T17:32:57.384Z,9.60
2018-08-30T17:35:25.635Z,9.50
2018-08-30T17:37:53.429Z,8.97
2018-08-30T17:40:21.132Z,8.43
2018-08-30T17:42:49.317Z,10.17
2018-08-30T17:45:17.731Z,9.00
2018-08-30T17:47:45.338Z,12.13
2018-08-30T17:50:13.158Z,11.80
2018-08-30T17:52:40.700Z,12.50
2018-08-30T17:55:08.688Z,9.10
2018-08-30T17:57:36.176Z,8.60
2018-08-30T18:00:04.452Z,8.73
2018-08-30T18:02:32.162Z,8.13
2018-08-30T18:04:59.958Z,9.10
2018-08-30T18:07:27.603Z,8.77
2018-08-30T18:09:55.320Z,9.00
2018-08-30T18:12:22.853Z,8.20
2018-08-30T18:14:51.336Z,9.20
2018-08-30T18:17:19.111Z,8.03
2018-08-30T18:19:46.724Z,8.77
2018-08-30T18:22:14.439Z,9.20
2018-08-30T18:24:42.580Z,9.83
2018-08-30T18:27:10.424Z,10.73
2018-08-30T18:29:38.230Z,10.03
2018-08-30T18:32:05.948Z,9.60
2018-08-30T18:34:34.568Z,10.20
2018-08-30T18:37:02.305Z,11.00
2018-08-30T18:39:30.164Z,10.13
2018-08-30T18:41:58.632Z,9.60
2018-08-30T18:44:26.310Z,10.03
2018-08-30T18:46:53.949Z,9.40
2018-08-30T18:49:21.869Z,8.80
2018-08-30T18:51:50.593Z,8.93
2018-08-30T18:54:18.282Z,9.43
2018-08-30T18:56:46.734Z,11.03
2018-08-30T18:59:14.662Z,11.20
2018-08-30T19:01:43.567Z,10.60
2018-08-30T19:04:11.599Z,10.60
2018-08-30T19:06:39.182Z,10.83
2018-08-30T19:09:09.363Z,10.20
2018-08-30T19:11:37.132Z,10.50
2018-08-30T19:14:05.002Z,10.50
2018-08-30T19:16:38.192Z,10.13
2018-08-30T19:19:08.485Z,9.63
2018-08-30T19:21:37.292Z,9.90
2018-08-30T19:24:04.947Z,9.00
2018-08-30T19:26:32.612Z,10.70
2018-08-30T19:29:00.751Z,10.80
2018-08-30T19:31:28.412Z,10.30
2018-08-30T19:33:56.518Z,11.30
2018-08-30T19:36:30.867Z,11.30
2018-08-30T19:38:59.265Z,10.67
2018-08-30T19:41:27.404Z,12.73
2018-08-30T19:43:55.248Z,12.93
2018-08-30T19:46:23.335Z,13.70
2018-08-30T19:48:50.896Z,13.10
2018-08-30T19:51:18.607Z,12.30
2018-08-30T19:53:46.252Z,12.93
2018-08-30T19:56:14.659Z,11.03
2018-08-30T19:58:43.239Z,12.70
2018-08-30T20:01:11.111Z,11.33
2018-08-30T20:03:38.920Z,11.17
2018-08-30T20:06:07.167Z,11.43
2018-08-30T20:08:34.892Z,12.20
2018-08-30T20:11:02.904Z,11.20
2018-08-30T20:13:31.372Z,13.40
2018-08-30T20:15:59.128Z,12.07
2018-08-30T20:18:27.212Z,10.00
2018-08-30T20:20:54.859Z,10.80
2018-08-30T20:23:22.633Z,11.77
2018-08-30T20:25:50.567Z,11.30
2018-08-30T20:28:18.447Z,11.27
2018-08-30T20:30:46.244Z,9.83
2018-08-30T20:33:14.027Z,10.07
2018-08-30T20:35:41.664Z,10.17
2018-08-30T20:38:10.465Z,10.30
2018-08-30T20:40:38.528Z,10.60
2018-08-30T20:43:06.477Z,11.23
2018-08-30T20:45:34.195Z,11.57
2018-08-30T20:48:01.909Z,10.97
2018-08-30T20:50:29.952Z,10.40
2018-08-30T20:52:57.710Z,10.27
2018-08-30T20:55:25.345Z,11.63
2018-08-30T20:57:52.961Z,11.43
2018-08-30T21:00:20.837Z,10.97
2018-08-30T21:02:48.528Z,11.20
2018-08-30T21:05:16.411Z,10.90
2018-08-30T21:07:44.133Z,11.67
2018-08-30T21:10:11.882Z,10.83
2018-08-30T21:12:39.455Z,10.70
2018-08-30T21:15:08.539Z,11.03
2018-08-30T21:17:36.189Z,11.27
2018-08-30T21:20:05.811Z,10.43
2018-08-30T21:22:33.344Z,10.70
2018-08-30T21:25:00.976Z,10.80
2018-08-30T21:27:29.657Z,11.90
2018-08-30T21:29:57.308Z,10.77
2018-08-30T21:32:25.068Z,11.63
2018-08-30T21:34:52.720Z,11.60
2018-08-30T21:37:20.273Z,11.47
2018-08-30T21:39:48.740Z,11.87
2018-08-30T21:42:17.040Z,11.23
2018-08-30T21:44:44.831Z,12.07
2018-08-30T21:47:12.559Z,11.77
2018-08-30T21:49:40.413Z,11.30
2018-08-30T21:52:08.116Z,11.50
2018-08-30T21:54:35.707Z,11.43
2018-08-30T21:57:03.396Z,12.40
2018-08-30T21:59:31.032Z,11.70
2018-08-30T22:01:59.359Z,12.33
2018-08-30T22:04:27.213Z,12.00
2018-08-30T22:06:55.472Z,11.90
2018-08-30T22:09:23.046Z,11.87
2018-08-30T22:11:50.825Z,12.20
2018-08-30T22:14:18.594Z,11.50
2018-08-30T22:16:46.685Z,11.67
2018-08-30T22:19:14.360Z,11.37
2018-08-30T22:21:42.818Z,11.17
2018-08-30T22:24:10.352Z,11.30
2018-08-30T22:26:38.604Z,12.00
2018-08-30T22:29:06.359Z,12.13
2018-08-30T22:31:33.944Z,13.00
2018-08-30T22:34:01.804Z,13.20
2018-08-30T22:36:29.388Z,12.47
2018-08-30T22:38:57.783Z,12.90
2018-08-30T22:41:26.757Z,11.43
2018-08-30T22:43:54.484Z,12.60
2018-08-30T22:46:21.995Z,11.80
2018-08-30T22:48:49.816Z,12.33
2018-08-30T22:51:17.772Z,11.27
2018-08-30T22:53:46.628Z,13.00
2018-08-30T22:56:15.060Z,12.00
2018-08-30T22:58:42.684Z,12.33
2018-08-30T23:01:10.355Z,12.50
2018-08-30T23:03:38.175Z,12.53
2018-08-30T23:06:05.971Z,12.77
2018-08-30T23:08:34.271Z,12.80
2018-08-30T23:11:02.901Z,13.83
2018-08-30T23:13:30.994Z,12.73
2018-08-30T23:15:58.739Z,12.67
2018-08-30T23:18:26.472Z,13.90
2018-08-30T23:20:54.279Z,11.73
2018-08-30T23:23:22.027Z,11.77
2018-08-30T23:25:50.284Z,12.53
2018-08-30T23:28:17.981Z,12.63
2018-08-30T23:30:45.656Z,12.50
2018-08-30T23:33:13.463Z,13.70
2018-08-30T23:35:41.227Z,11.67
2018-08-30T23:38:08.898Z,13.27
2018-08-30T23:40:36.680Z,12.67
2018-08-30T23:43:04.608Z,12.20
2018-08-30T23:45:32.256Z,12.53
2018-08-30T23:48:00.660Z,11.40
2018-08-30T23:50:28.301Z,12.00
2018-08-30T23:52:55.970Z,12.80
2018-08-30T23:55:23.544Z,12.93
2018-08-30T23:58:02.563Z,11.90
